sensor_id;sensor_type;location;lat;lon;timestamp;P1;durP1;ratioP1;P2;durP2;ratioP2
48040;SDS011;33815;48.386;11.738;2023-01-16T00:01:42;3.80;;;1.42;;
48040;SDS011;33815;48.386;11.738;2023-01-16T00:04:07;4.05;;;1.67;;
48040;SDS011;33815;48.386;11.738;2023-01-16T00:06:33;1.40;;;1.30;;
48040;SDS011;33815;48.386;11.738;2023-01-16T00:09:00;1.17;;;1.17;;
48040;SDS011;33815;48.386;11.738;2023-01-16T00:11:25;1.50;;;1.40;;
48040;SDS011;33815;48.386;11.738;2023-01-16T00:13:50;1.38;;;1.27;;
48040;SDS011;33815;48.386;11.738;2023-01-16T00:16:15;1.55;;;1.45;;
48040;SDS011;33815;48.386;11.738;2023-01-16T00:18:43;1.65;;;1.55;;
48040;SDS011;33815;48.386;11.738;2023-01-16T00:21:09;1.42;;;1.33;;
48040;SDS011;33815;48.386;11.738;2023-01-16T00:23:35;1.63;;;1.50;;
48040;SDS011;33815;48.386;11.738;2023-01-16T00:26:03;2.65;;;1.23;;
48040;SDS011;33815;48.386;11.738;2023-01-16T00:28:30;3.05;;;1.40;;
48040;SDS011;33815;48.386;11.738;2023-01-16T00:30:57;2.95;;;1.65;;
48040;SDS011;33815;48.386;11.738;2023-01-16T00:33:22;1.70;;;1.40;;
48040;SDS011;33815;48.386;11.738;2023-01-16T00:35:47;2.88;;;1.30;;
48040;SDS011;33815;48.386;11.738;2023-01-16T00:38:13;1.48;;;1.38;;
48040;SDS011;33815;48.386;11.738;2023-01-16T00:40:38;1.55;;;1.40;;
48040;SDS011;33815;48.386;11.738;2023-01-16T00:43:03;5.15;;;1.35;;
48040;SDS011;33815;48.386;11.738;2023-01-16T00:45:29;1.50;;;1.40;;
48040;SDS011;33815;48.386;11.738;2023-01-16T00:47:54;1.10;;;1.10;;
48040;SDS011;33815;48.386;11.738;2023-01-16T00:50:19;1.80;;;1.10;;
48040;SDS011;33815;48.386;11.738;2023-01-16T00:52:45;1.10;;;1.10;;
48040;SDS011;33815;48.386;11.738;2023-01-16T00:55:10;1.33;;;1.23;;
48040;SDS011;33815;48.386;11.738;2023-01-16T00:57:35;2.42;;;1.33;;
48040;SDS011;33815;48.386;11.738;2023-01-16T01:00:01;2.05;;;1.60;;
48040;SDS011;33815;48.386;11.738;2023-01-16T01:02:26;1.45;;;1.20;;
48040;SDS011;33815;48.386;11.738;2023-01-16T01:04:51;3.38;;;1.42;;
48040;SDS011;33815;48.386;11.738;2023-01-16T01:07:17;1.42;;;1.23;;
48040;SDS011;33815;48.386;11.738;2023-01-16T01:09:42;1.30;;;1.20;;
48040;SDS011;33815;48.386;11.738;2023-01-16T01:12:07;1.25;;;1.15;;
48040;SDS011;33815;48.386;11.738;2023-01-16T01:14:32;1.50;;;1.40;;
48040;SDS011;33815;48.386;11.738;2023-01-16T01:16:58;1.85;;;1.15;;
48040;SDS011;33815;48.386;11.738;2023-01-16T01:19:23;1.00;;;1.00;;
48040;SDS011;33815;48.386;11.738;2023-01-16T01:21:48;1.63;;;1.52;;
48040;SDS011;33815;48.386;11.738;2023-01-16T01:24:14;1.15;;;1.10;;
48040;SDS011;33815;48.386;11.738;2023-01-16T01:26:39;4.03;;;1.20;;
48040;SDS011;33815;48.386;11.738;2023-01-16T01:29:04;1.17;;;1.10;;
48040;SDS011;33815;48.386;11.738;2023-01-16T01:31:29;1.20;;;1.20;;
48040;SDS011;33815;48.386;11.738;2023-01-16T01:33:55;1.40;;;1.30;;
48040;SDS011;33815;48.386;11.738;2023-01-16T01:36:20;1.52;;;1.30;;
48040;SDS011;33815;48.386;11.738;2023-01-16T01:38:45;2.13;;;1.35;;
48040;SDS011;33815;48.386;11.738;2023-01-16T01:41:14;1.35;;;1.25;;
48040;SDS011;33815;48.386;11.738;2023-01-16T01:43:45;1.23;;;1.13;;
48040;SDS011;33815;48.386;11.738;2023-01-16T01:46:18;2.67;;;1.38;;
48040;SDS011;33815;48.386;11.738;2023-01-16T01:48:48;1.58;;;1.33;;
48040;SDS011;33815;48.386;11.738;2023-01-16T01:51:19;1.10;;;1.10;;
48040;SDS011;33815;48.386;11.738;2023-01-16T01:53:51;4.65;;;1.40;;
48040;SDS011;33815;48.386;11.738;2023-01-16T01:59:01;1.25;;;1.10;;
48040;SDS011;33815;48.386;11.738;2023-01-16T02:01:39;1.27;;;1.20;;
48040;SDS011;33815;48.386;11.738;2023-01-16T02:04:12;4.53;;;1.70;;
48040;SDS011;33815;48.386;11.738;2023-01-16T02:06:51;1.17;;;1.13;;
48040;SDS011;33815;48.386;11.738;2023-01-16T02:09:20;1.48;;;1.38;;
48040;SDS011;33815;48.386;11.738;2023-01-16T02:11:54;1.45;;;1.35;;
48040;SDS011;33815;48.386;11.738;2023-01-16T02:14:21;1.10;;;1.10;;
48040;SDS011;33815;48.386;11.738;2023-01-16T02:16:51;1.23;;;1.23;;
48040;SDS011;33815;48.386;11.738;2023-01-16T02:22:52;2.35;;;1.42;;
48040;SDS011;33815;48.386;11.738;2023-01-16T02:33:52;4.47;;;1.60;;
48040;SDS011;33815;48.386;11.738;2023-01-16T02:44:50;1.17;;;1.17;;
48040;SDS011;33815;48.386;11.738;2023-01-16T02:47:30;1.77;;;1.13;;
48040;SDS011;33815;48.386;11.738;2023-01-16T02:52:56;1.20;;;1.20;;
48040;SDS011;33815;48.386;11.738;2023-01-16T02:55:46;3.67;;;1.42;;
48040;SDS011;33815;48.386;11.738;2023-01-16T02:58:18;1.10;;;1.05;;
48040;SDS011;33815;48.386;11.738;2023-01-16T03:00:48;1.13;;;1.10;;
48040;SDS011;33815;48.386;11.738;2023-01-16T03:03:36;1.25;;;1.17;;
48040;SDS011;33815;48.386;11.738;2023-01-16T03:06:49;1.30;;;1.30;;
48040;SDS011;33815;48.386;11.738;2023-01-16T03:19:52;1.10;;;1.10;;
48040;SDS011;33815;48.386;11.738;2023-01-16T03:22:39;1.00;;;1.00;;
48040;SDS011;33815;48.386;11.738;2023-01-16T03:28:07;1.13;;;1.00;;
48040;SDS011;33815;48.386;11.738;2023-01-16T03:30:46;1.20;;;1.20;;
48040;SDS011;33815;48.386;11.738;2023-01-16T03:33:19;3.45;;;1.42;;
48040;SDS011;33815;48.386;11.738;2023-01-16T03:35:53;1.25;;;1.15;;
48040;SDS011;33815;48.386;11.738;2023-01-16T03:38:22;2.58;;;1.10;;
48040;SDS011;33815;48.386;11.738;2023-01-16T03:40:50;1.25;;;1.15;;
48040;SDS011;33815;48.386;11.738;2023-01-16T03:43:25;1.20;;;1.20;;
48040;SDS011;33815;48.386;11.738;2023-01-16T03:45:55;1.10;;;1.10;;
48040;SDS011;33815;48.386;11.738;2023-01-16T03:48:34;2.10;;;1.15;;
48040;SDS011;33815;48.386;11.738;2023-01-16T03:51:07;2.20;;;1.15;;
48040;SDS011;33815;48.386;11.738;2023-01-16T03:53:38;1.20;;;1.10;;
48040;SDS011;33815;48.386;11.738;2023-01-16T03:58:45;1.40;;;1.10;;
48040;SDS011;33815;48.386;11.738;2023-01-16T04:01:16;1.20;;;1.10;;
48040;SDS011;33815;48.386;11.738;2023-01-16T04:03:45;1.58;;;1.20;;
48040;SDS011;33815;48.386;11.738;2023-01-16T04:06:30;1.45;;;1.35;;
48040;SDS011;33815;48.386;11.738;2023-01-16T04:08:59;1.65;;;1.10;;
48040;SDS011;33815;48.386;11.738;2023-01-16T04:11:29;1.00;;;1.00;;
48040;SDS011;33815;48.386;11.738;2023-01-16T04:13:56;1.02;;;1.02;;
48040;SDS011;33815;48.386;11.738;2023-01-16T04:16:25;1.67;;;1.33;;
48040;SDS011;33815;48.386;11.738;2023-01-16T04:18:54;1.10;;;1.10;;
48040;SDS011;33815;48.386;11.738;2023-01-16T04:21:25;1.98;;;1.10;;
48040;SDS011;33815;48.386;11.738;2023-01-16T04:23:52;1.20;;;1.20;;
48040;SDS011;33815;48.386;11.738;2023-01-16T04:26:20;1.20;;;1.20;;
48040;SDS011;33815;48.386;11.738;2023-01-16T04:28:45;1.20;;;1.20;;
48040;SDS011;33815;48.386;11.738;2023-01-16T04:31:10;1.08;;;1.08;;
48040;SDS011;33815;48.386;11.738;2023-01-16T04:33:36;1.33;;;1.30;;
48040;SDS011;33815;48.386;11.738;2023-01-16T04:36:01;1.83;;;1.73;;
48040;SDS011;33815;48.386;11.738;2023-01-16T04:38:26;1.35;;;1.27;;
48040;SDS011;33815;48.386;11.738;2023-01-16T04:40:54;1.50;;;1.40;;
48040;SDS011;33815;48.386;11.738;2023-01-16T04:43:20;1.13;;;1.10;;
48040;SDS011;33815;48.386;11.738;2023-01-16T04:45:46;1.27;;;1.27;;
48040;SDS011;33815;48.386;11.738;2023-01-16T04:48:12;1.20;;;1.20;;
48040;SDS011;33815;48.386;11.738;2023-01-16T04:50:37;1.55;;;1.25;;
48040;SDS011;33815;48.386;11.738;2023-01-16T04:53:02;1.30;;;1.20;;
48040;SDS011;33815;48.386;11.738;2023-01-16T04:55:28;1.15;;;1.10;;
48040;SDS011;33815;48.386;11.738;2023-01-16T04:57:53;1.48;;;1.38;;
48040;SDS011;33815;48.386;11.738;2023-01-16T05:00:18;1.35;;;1.35;;
48040;SDS011;33815;48.386;11.738;2023-01-16T05:02:44;1.48;;;1.45;;
48040;SDS011;33815;48.386;11.738;2023-01-16T05:05:09;1.42;;;1.35;;
48040;SDS011;33815;48.386;11.738;2023-01-16T05:07:34;5.00;;;1.77;;
48040;SDS011;33815;48.386;11.738;2023-01-16T05:10:00;1.50;;;1.40;;
48040;SDS011;33815;48.386;11.738;2023-01-16T05:12:25;1.55;;;1.30;;
48040;SDS011;33815;48.386;11.738;2023-01-16T05:14:50;1.20;;;1.20;;
48040;SDS011;33815;48.386;11.738;2023-01-16T05:17:15;1.48;;;1.38;;
48040;SDS011;33815;48.386;11.738;2023-01-16T05:19:41;1.85;;;1.35;;
48040;SDS011;33815;48.386;11.738;2023-01-16T05:22:06;1.67;;;1.52;;
48040;SDS011;33815;48.386;11.738;2023-01-16T05:24:31;3.03;;;1.40;;
48040;SDS011;33815;48.386;11.738;2023-01-16T05:26:57;1.25;;;1.25;;
48040;SDS011;33815;48.386;11.738;2023-01-16T05:29:22;1.45;;;1.30;;
48040;SDS011;33815;48.386;11.738;2023-01-16T05:31:47;1.38;;;1.38;;
48040;SDS011;33815;48.386;11.738;2023-01-16T05:34:12;2.25;;;1.40;;
48040;SDS011;33815;48.386;11.738;2023-01-16T05:36:38;1.20;;;1.20;;
48040;SDS011;33815;48.386;11.738;2023-01-16T05:39:03;1.42;;;1.42;;
48040;SDS011;33815;48.386;11.738;2023-01-16T05:41:28;1.35;;;1.35;;
48040;SDS011;33815;48.386;11.738;2023-01-16T05:43:54;1.15;;;1.15;;
48040;SDS011;33815;48.386;11.738;2023-01-16T05:46:19;1.70;;;1.50;;
48040;SDS011;33815;48.386;11.738;2023-01-16T05:48:44;1.27;;;1.20;;
48040;SDS011;33815;48.386;11.738;2023-01-16T05:51:09;2.00;;;1.52;;
48040;SDS011;33815;48.386;11.738;2023-01-16T05:53:36;1.30;;;1.30;;
48040;SDS011;33815;48.386;11.738;2023-01-16T05:56:06;1.55;;;1.45;;
48040;SDS011;33815;48.386;11.738;2023-01-16T05:58:32;1.52;;;1.35;;
48040;SDS011;33815;48.386;11.738;2023-01-16T06:00:57;1.50;;;1.40;;
48040;SDS011;33815;48.386;11.738;2023-01-16T06:03:23;1.60;;;1.50;;
48040;SDS011;33815;48.386;11.738;2023-01-16T06:05:48;1.70;;;1.60;;
48040;SDS011;33815;48.386;11.738;2023-01-16T06:08:13;1.45;;;1.35;;
48040;SDS011;33815;48.386;11.738;2023-01-16T06:10:38;2.58;;;1.40;;
48040;SDS011;33815;48.386;11.738;2023-01-16T06:13:04;1.63;;;1.52;;
48040;SDS011;33815;48.386;11.738;2023-01-16T06:15:29;2.38;;;2.17;;
48040;SDS011;33815;48.386;11.738;2023-01-16T06:17:54;4.07;;;2.80;;
48040;SDS011;33815;48.386;11.738;2023-01-16T06:20:20;4.45;;;2.22;;
48040;SDS011;33815;48.386;11.738;2023-01-16T06:22:46;4.03;;;2.70;;
48040;SDS011;33815;48.386;11.738;2023-01-16T06:25:11;3.20;;;2.90;;
48040;SDS011;33815;48.386;11.738;2023-01-16T06:27:36;2.40;;;2.10;;
48040;SDS011;33815;48.386;11.738;2023-01-16T06:30:02;1.58;;;1.48;;
48040;SDS011;33815;48.386;11.738;2023-01-16T06:32:28;1.70;;;1.60;;
48040;SDS011;33815;48.386;11.738;2023-01-16T06:34:54;1.80;;;1.70;;
48040;SDS011;33815;48.386;11.738;2023-01-16T06:37:19;3.38;;;2.35;;
48040;SDS011;33815;48.386;11.738;2023-01-16T06:39:44;2.17;;;1.90;;
48040;SDS011;33815;48.386;11.738;2023-01-16T06:42:10;2.35;;;1.80;;
48040;SDS011;33815;48.386;11.738;2023-01-16T06:44:35;1.45;;;1.42;;
48040;SDS011;33815;48.386;11.738;2023-01-16T06:47:00;1.67;;;1.58;;
48040;SDS011;33815;48.386;11.738;2023-01-16T06:49:26;3.58;;;2.38;;
48040;SDS011;33815;48.386;11.738;2023-01-16T06:51:51;8.52;;;3.17;;
48040;SDS011;33815;48.386;11.738;2023-01-16T06:54:17;4.03;;;3.05;;
48040;SDS011;33815;48.386;11.738;2023-01-16T06:56:42;4.05;;;3.50;;
48040;SDS011;33815;48.386;11.738;2023-01-16T06:59:07;3.78;;;2.20;;
48040;SDS011;33815;48.386;11.738;2023-01-16T07:01:32;2.47;;;2.10;;
48040;SDS011;33815;48.386;11.738;2023-01-16T07:03:58;2.45;;;1.50;;
48040;SDS011;33815;48.386;11.738;2023-01-16T07:06:23;1.20;;;1.20;;
48040;SDS011;33815;48.386;11.738;2023-01-16T07:08:48;1.40;;;1.38;;
48040;SDS011;33815;48.386;11.738;2023-01-16T07:11:15;1.52;;;1.42;;
48040;SDS011;33815;48.386;11.738;2023-01-16T07:13:41;2.38;;;1.55;;
48040;SDS011;33815;48.386;11.738;2023-01-16T07:16:08;1.30;;;1.30;;
48040;SDS011;33815;48.386;11.738;2023-01-16T07:18:56;1.80;;;1.70;;
48040;SDS011;33815;48.386;11.738;2023-01-16T07:21:41;2.00;;;1.83;;
48040;SDS011;33815;48.386;11.738;2023-01-16T07:24:27;3.70;;;2.15;;
48040;SDS011;33815;48.386;11.738;2023-01-16T07:26:57;6.20;;;1.98;;
48040;SDS011;33815;48.386;11.738;2023-01-16T07:29:26;4.75;;;2.45;;
48040;SDS011;33815;48.386;11.738;2023-01-16T07:31:53;3.28;;;1.88;;
48040;SDS011;33815;48.386;11.738;2023-01-16T07:34:19;3.42;;;2.80;;
48040;SDS011;33815;48.386;11.738;2023-01-16T07:36:44;3.75;;;2.72;;
48040;SDS011;33815;48.386;11.738;2023-01-16T07:39:09;5.70;;;3.53;;
48040;SDS011;33815;48.386;11.738;2023-01-16T07:41:35;3.90;;;3.08;;
48040;SDS011;33815;48.386;11.738;2023-01-16T07:44:00;4.82;;;3.25;;
48040;SDS011;33815;48.386;11.738;2023-01-16T07:46:25;5.55;;;3.15;;
48040;SDS011;33815;48.386;11.738;2023-01-16T07:48:50;3.00;;;2.70;;
48040;SDS011;33815;48.386;11.738;2023-01-16T07:51:17;6.15;;;3.72;;
48040;SDS011;33815;48.386;11.738;2023-01-16T07:53:43;4.07;;;3.05;;
48040;SDS011;33815;48.386;11.738;2023-01-16T07:56:08;4.88;;;3.63;;
48040;SDS011;33815;48.386;11.738;2023-01-16T07:58:33;4.28;;;2.67;;
48040;SDS011;33815;48.386;11.738;2023-01-16T08:00:58;5.57;;;2.53;;
48040;SDS011;33815;48.386;11.738;2023-01-16T08:03:24;4.25;;;2.83;;
48040;SDS011;33815;48.386;11.738;2023-01-16T08:05:54;3.17;;;2.90;;
48040;SDS011;33815;48.386;11.738;2023-01-16T08:08:23;3.70;;;2.50;;
48040;SDS011;33815;48.386;11.738;2023-01-16T08:10:52;2.70;;;2.50;;
48040;SDS011;33815;48.386;11.738;2023-01-16T08:13:18;4.22;;;2.97;;
48040;SDS011;33815;48.386;11.738;2023-01-16T08:15:43;6.05;;;2.80;;
48040;SDS011;33815;48.386;11.738;2023-01-16T08:18:08;3.72;;;2.47;;
48040;SDS011;33815;48.386;11.738;2023-01-16T08:20:34;2.53;;;2.25;;
48040;SDS011;33815;48.386;11.738;2023-01-16T08:22:59;3.05;;;2.65;;
48040;SDS011;33815;48.386;11.738;2023-01-16T08:25:26;3.72;;;2.33;;
48040;SDS011;33815;48.386;11.738;2023-01-16T08:27:51;4.00;;;2.50;;
48040;SDS011;33815;48.386;11.738;2023-01-16T08:30:16;3.80;;;2.35;;
48040;SDS011;33815;48.386;11.738;2023-01-16T08:32:42;2.35;;;2.15;;
48040;SDS011;33815;48.386;11.738;2023-01-16T08:35:08;3.00;;;1.88;;
48040;SDS011;33815;48.386;11.738;2023-01-16T08:37:34;2.03;;;1.92;;
48040;SDS011;33815;48.386;11.738;2023-01-16T08:40:00;2.25;;;1.90;;
48040;SDS011;33815;48.386;11.738;2023-01-16T08:42:26;2.10;;;1.75;;
48040;SDS011;33815;48.386;11.738;2023-01-16T08:45:10;1.98;;;1.80;;
48040;SDS011;33815;48.386;11.738;2023-01-16T08:47:55;2.33;;;2.00;;
48040;SDS011;33815;48.386;11.738;2023-01-16T08:50:39;4.90;;;1.70;;
48040;SDS011;33815;48.386;11.738;2023-01-16T08:53:23;1.73;;;1.63;;
48040;SDS011;33815;48.386;11.738;2023-01-16T08:55:49;2.55;;;1.70;;
48040;SDS011;33815;48.386;11.738;2023-01-16T08:58:14;1.50;;;1.40;;
48040;SDS011;33815;48.386;11.738;2023-01-16T09:00:39;1.90;;;1.80;;
48040;SDS011;33815;48.386;11.738;2023-01-16T09:03:05;1.63;;;1.52;;
48040;SDS011;33815;48.386;11.738;2023-01-16T09:05:30;2.22;;;1.40;;
48040;SDS011;33815;48.386;11.738;2023-01-16T09:07:55;1.40;;;1.30;;
48040;SDS011;33815;48.386;11.738;2023-01-16T09:10:20;1.70;;;1.60;;
48040;SDS011;33815;48.386;11.738;2023-01-16T09:12:46;2.22;;;1.45;;
48040;SDS011;33815;48.386;11.738;2023-01-16T09:15:30;1.50;;;1.30;;
48040;SDS011;33815;48.386;11.738;2023-01-16T09:17:55;1.58;;;1.48;;
48040;SDS011;33815;48.386;11.738;2023-01-16T09:20:21;5.80;;;1.40;;
48040;SDS011;33815;48.386;11.738;2023-01-16T09:22:46;1.92;;;1.77;;
48040;SDS011;33815;48.386;11.738;2023-01-16T09:25:12;1.50;;;1.40;;
48040;SDS011;33815;48.386;11.738;2023-01-16T09:27:37;3.88;;;1.67;;
48040;SDS011;33815;48.386;11.738;2023-01-16T09:30:03;1.10;;;1.10;;
48040;SDS011;33815;48.386;11.738;2023-01-16T09:32:29;1.52;;;1.42;;
48040;SDS011;33815;48.386;11.738;2023-01-16T09:34:55;1.38;;;1.30;;
48040;SDS011;33815;48.386;11.738;2023-01-16T09:37:20;1.75;;;1.42;;
48040;SDS011;33815;48.386;11.738;2023-01-16T09:39:46;3.67;;;1.58;;
48040;SDS011;33815;48.386;11.738;2023-01-16T09:44:57;1.33;;;1.23;;
48040;SDS011;33815;48.386;11.738;2023-01-16T09:47:26;1.42;;;1.33;;
48040;SDS011;33815;48.386;11.738;2023-01-16T09:49:55;1.60;;;1.40;;
48040;SDS011;33815;48.386;11.738;2023-01-16T09:52:27;1.67;;;1.50;;
48040;SDS011;33815;48.386;11.738;2023-01-16T09:55:48;1.35;;;1.25;;
48040;SDS011;33815;48.386;11.738;2023-01-16T09:58:28;2.05;;;1.40;;
48040;SDS011;33815;48.386;11.738;2023-01-16T10:01:00;1.45;;;1.35;;
48040;SDS011;33815;48.386;11.738;2023-01-16T10:03:27;1.60;;;1.50;;
48040;SDS011;33815;48.386;11.738;2023-01-16T10:05:58;1.60;;;1.50;;
48040;SDS011;33815;48.386;11.738;2023-01-16T10:11:50;1.30;;;1.20;;
48040;SDS011;33815;48.386;11.738;2023-01-16T10:20:01;3.45;;;1.48;;
48040;SDS011;33815;48.386;11.738;2023-01-16T10:22:38;2.47;;;1.25;;
48040;SDS011;33815;48.386;11.738;2023-01-16T10:28:04;1.67;;;1.58;;
48040;SDS011;33815;48.386;11.738;2023-01-16T10:30:52;2.45;;;1.40;;
48040;SDS011;33815;48.386;11.738;2023-01-16T10:33:29;2.47;;;1.67;;
48040;SDS011;33815;48.386;11.738;2023-01-16T10:36:00;1.70;;;1.60;;
48040;SDS011;33815;48.386;11.738;2023-01-16T10:41:12;1.70;;;1.40;;
48040;SDS011;33815;48.386;11.738;2023-01-16T10:44:02;3.38;;;1.50;;
48040;SDS011;33815;48.386;11.738;2023-01-16T10:46:51;1.35;;;1.25;;
48040;SDS011;33815;48.386;11.738;2023-01-16T10:49:35;1.33;;;1.27;;
48040;SDS011;33815;48.386;11.738;2023-01-16T10:52:01;1.35;;;1.27;;
48040;SDS011;33815;48.386;11.738;2023-01-16T10:54:28;1.50;;;1.40;;
48040;SDS011;33815;48.386;11.738;2023-01-16T10:56:54;1.42;;;1.30;;
48040;SDS011;33815;48.386;11.738;2023-01-16T10:59:22;1.58;;;1.38;;
48040;SDS011;33815;48.386;11.738;2023-01-16T11:01:49;1.38;;;1.27;;
48040;SDS011;33815;48.386;11.738;2023-01-16T11:04:17;1.75;;;1.00;;
48040;SDS011;33815;48.386;11.738;2023-01-16T11:06:44;1.75;;;1.10;;
48040;SDS011;33815;48.386;11.738;2023-01-16T11:11:38;1.63;;;1.52;;
48040;SDS011;33815;48.386;11.738;2023-01-16T11:14:29;1.17;;;0.93;;
48040;SDS011;33815;48.386;11.738;2023-01-16T11:20:17;1.35;;;1.20;;
48040;SDS011;33815;48.386;11.738;2023-01-16T11:22:45;1.42;;;1.05;;
48040;SDS011;33815;48.386;11.738;2023-01-16T11:25:17;1.40;;;1.20;;
48040;SDS011;33815;48.386;11.738;2023-01-16T11:27:43;2.25;;;1.33;;
48040;SDS011;33815;48.386;11.738;2023-01-16T11:30:20;1.65;;;1.17;;
48040;SDS011;33815;48.386;11.738;2023-01-16T11:32:51;2.10;;;1.30;;
48040;SDS011;33815;48.386;11.738;2023-01-16T11:35:19;3.92;;;1.02;;
48040;SDS011;33815;48.386;11.738;2023-01-16T11:37:47;1.35;;;1.15;;
48040;SDS011;33815;48.386;11.738;2023-01-16T11:40:17;2.17;;;1.15;;
48040;SDS011;33815;48.386;11.738;2023-01-16T11:42:56;1.05;;;1.00;;
48040;SDS011;33815;48.386;11.738;2023-01-16T11:45:47;1.08;;;0.98;;
48040;SDS011;33815;48.386;11.738;2023-01-16T11:48:52;1.05;;;0.95;;
48040;SDS011;33815;48.386;11.738;2023-01-16T11:51:19;0.93;;;0.82;;
48040;SDS011;33815;48.386;11.738;2023-01-16T11:53:48;1.67;;;0.93;;
48040;SDS011;33815;48.386;11.738;2023-01-16T12:02:09;1.38;;;1.00;;
48040;SDS011;33815;48.386;11.738;2023-01-16T12:13:10;0.93;;;0.90;;
48040;SDS011;33815;48.386;11.738;2023-01-16T12:19:00;1.33;;;1.23;;
48040;SDS011;33815;48.386;11.738;2023-01-16T12:21:47;1.10;;;1.00;;
48040;SDS011;33815;48.386;11.738;2023-01-16T12:24:39;1.20;;;1.10;;
48040;SDS011;33815;48.386;11.738;2023-01-16T12:27:13;1.42;;;1.33;;
48040;SDS011;33815;48.386;11.738;2023-01-16T12:30:15;1.38;;;1.00;;
48040;SDS011;33815;48.386;11.738;2023-01-16T12:32:59;0.80;;;0.80;;
48040;SDS011;33815;48.386;11.738;2023-01-16T12:38:45;3.70;;;2.50;;
48040;SDS011;33815;48.386;11.738;2023-01-16T12:41:23;24.27;;;1.92;;
48040;SDS011;33815;48.386;11.738;2023-01-16T12:44:27;0.98;;;0.98;;
48040;SDS011;33815;48.386;11.738;2023-01-16T12:47:06;2.33;;;2.08;;
48040;SDS011;33815;48.386;11.738;2023-01-16T12:58:12;1.30;;;1.20;;
48040;SDS011;33815;48.386;11.738;2023-01-16T13:06:32;1.83;;;1.27;;
48040;SDS011;33815;48.386;11.738;2023-01-16T13:09:04;1.20;;;1.10;;
48040;SDS011;33815;48.386;11.738;2023-01-16T13:12:01;3.90;;;1.10;;
48040;SDS011;33815;48.386;11.738;2023-01-16T13:14:54;0.85;;;0.85;;
48040;SDS011;33815;48.386;11.738;2023-01-16T13:17:24;1.38;;;1.08;;
48040;SDS011;33815;48.386;11.738;2023-01-16T13:19:52;1.30;;;1.05;;
48040;SDS011;33815;48.386;11.738;2023-01-16T13:22:20;1.30;;;1.25;;
48040;SDS011;33815;48.386;11.738;2023-01-16T13:25:06;3.90;;;1.10;;
48040;SDS011;33815;48.386;11.738;2023-01-16T13:27:39;1.48;;;1.00;;
48040;SDS011;33815;48.386;11.738;2023-01-16T13:30:09;1.20;;;1.10;;
48040;SDS011;33815;48.386;11.738;2023-01-16T13:32:40;1.10;;;1.00;;
48040;SDS011;33815;48.386;11.738;2023-01-16T13:35:13;1.27;;;1.20;;
48040;SDS011;33815;48.386;11.738;2023-01-16T13:40:51;5.85;;;2.65;;
48040;SDS011;33815;48.386;11.738;2023-01-16T13:43:32;1.35;;;1.00;;
48040;SDS011;33815;48.386;11.738;2023-01-16T13:46:21;2.28;;;1.63;;
48040;SDS011;33815;48.386;11.738;2023-01-16T13:48:51;1.77;;;1.33;;
48040;SDS011;33815;48.386;11.738;2023-01-16T13:51:18;2.50;;;1.23;;
48040;SDS011;33815;48.386;11.738;2023-01-16T13:53:52;1.50;;;1.27;;
48040;SDS011;33815;48.386;11.738;2023-01-16T13:56:22;0.93;;;0.93;;
48040;SDS011;33815;48.386;11.738;2023-01-16T13:58:53;1.77;;;1.23;;
48040;SDS011;33815;48.386;11.738;2023-01-16T14:02:04;3.80;;;1.02;;
48040;SDS011;33815;48.386;11.738;2023-01-16T14:06:48;2.00;;;1.20;;
48040;SDS011;33815;48.386;11.738;2023-01-16T14:14:29;3.00;;;2.10;;
48040;SDS011;33815;48.386;11.738;2023-01-16T14:17:15;6.45;;;3.50;;
48040;SDS011;33815;48.386;11.738;2023-01-16T14:22:19;14.32;;;6.88;;
48040;SDS011;33815;48.386;11.738;2023-01-16T14:24:48;10.18;;;4.93;;
48040;SDS011;33815;48.386;11.738;2023-01-16T14:27:18;5.32;;;2.97;;
48040;SDS011;33815;48.386;11.738;2023-01-16T14:29:50;2.45;;;1.70;;
48040;SDS011;33815;48.386;11.738;2023-01-16T14:32:20;1.90;;;1.70;;
48040;SDS011;33815;48.386;11.738;2023-01-16T14:42:35;2.85;;;1.38;;
48040;SDS011;33815;48.386;11.738;2023-01-16T14:48:15;1.27;;;1.17;;
48040;SDS011;33815;48.386;11.738;2023-01-16T14:51:27;1.10;;;1.00;;
48040;SDS011;33815;48.386;11.738;2023-01-16T14:57:22;1.00;;;1.00;;
48040;SDS011;33815;48.386;11.738;2023-01-16T15:02:26;0.93;;;0.93;;
48040;SDS011;33815;48.386;11.738;2023-01-16T15:07:46;1.10;;;1.10;;
48040;SDS011;33815;48.386;11.738;2023-01-16T15:10:23;0.90;;;0.85;;
48040;SDS011;33815;48.386;11.738;2023-01-16T15:12:54;1.10;;;1.00;;
48040;SDS011;33815;48.386;11.738;2023-01-16T15:15:53;1.63;;;1.45;;
48040;SDS011;33815;48.386;11.738;2023-01-16T15:18:23;1.77;;;1.67;;
48040;SDS011;33815;48.386;11.738;2023-01-16T15:21:15;3.05;;;1.20;;
48040;SDS011;33815;48.386;11.738;2023-01-16T15:24:00;1.48;;;1.25;;
48040;SDS011;33815;48.386;11.738;2023-01-16T15:26:33;1.27;;;1.27;;
48040;SDS011;33815;48.386;11.738;2023-01-16T15:31:56;0.90;;;0.90;;
48040;SDS011;33815;48.386;11.738;2023-01-16T15:34:27;1.30;;;1.20;;
48040;SDS011;33815;48.386;11.738;2023-01-16T15:36:53;2.40;;;1.15;;
48040;SDS011;33815;48.386;11.738;2023-01-16T15:39:30;1.30;;;1.10;;
48040;SDS011;33815;48.386;11.738;2023-01-16T15:42:03;1.20;;;1.00;;
48040;SDS011;33815;48.386;11.738;2023-01-16T15:44:51;4.00;;;1.20;;
48040;SDS011;33815;48.386;11.738;2023-01-16T15:53:03;3.70;;;2.67;;
48040;SDS011;33815;48.386;11.738;2023-01-16T15:55:37;4.85;;;2.30;;
48040;SDS011;33815;48.386;11.738;2023-01-16T15:58:10;2.17;;;1.88;;
48040;SDS011;33815;48.386;11.738;2023-01-16T16:00:39;1.58;;;1.15;;
48040;SDS011;33815;48.386;11.738;2023-01-16T16:03:16;1.98;;;1.25;;
48040;SDS011;33815;48.386;11.738;2023-01-16T16:05:46;4.55;;;1.90;;
48040;SDS011;33815;48.386;11.738;2023-01-16T16:08:20;2.38;;;1.65;;
48040;SDS011;33815;48.386;11.738;2023-01-16T16:10:49;2.70;;;1.75;;
48040;SDS011;33815;48.386;11.738;2023-01-16T16:13:35;1.83;;;1.73;;
48040;SDS011;33815;48.386;11.738;2023-01-16T16:16:03;1.92;;;1.25;;
48040;SDS011;33815;48.386;11.738;2023-01-16T16:18:58;1.38;;;1.38;;
48040;SDS011;33815;48.386;11.738;2023-01-16T16:21:28;1.90;;;1.80;;
48040;SDS011;33815;48.386;11.738;2023-01-16T16:24:34;1.77;;;1.67;;
48040;SDS011;33815;48.386;11.738;2023-01-16T16:27:07;4.78;;;2.88;;
48040;SDS011;33815;48.386;11.738;2023-01-16T16:29:37;2.30;;;2.03;;
48040;SDS011;33815;48.386;11.738;2023-01-16T16:32:04;2.85;;;1.42;;
48040;SDS011;33815;48.386;11.738;2023-01-16T16:34:33;1.60;;;1.50;;
48040;SDS011;33815;48.386;11.738;2023-01-16T16:37:01;1.55;;;1.45;;
48040;SDS011;33815;48.386;11.738;2023-01-16T16:42:01;5.15;;;1.55;;
48040;SDS011;33815;48.386;11.738;2023-01-16T16:47:32;1.60;;;1.50;;
48040;SDS011;33815;48.386;11.738;2023-01-16T16:52:46;1.67;;;1.58;;
48040;SDS011;33815;48.386;11.738;2023-01-16T16:55:31;1.65;;;1.45;;
48040;SDS011;33815;48.386;11.738;2023-01-16T16:58:00;1.13;;;1.13;;
48040;SDS011;33815;48.386;11.738;2023-01-16T17:00:29;1.58;;;1.48;;
48040;SDS011;33815;48.386;11.738;2023-01-16T17:03:02;5.38;;;1.70;;
48040;SDS011;33815;48.386;11.738;2023-01-16T17:05:30;3.33;;;2.65;;
48040;SDS011;33815;48.386;11.738;2023-01-16T17:07:56;3.95;;;2.45;;
48040;SDS011;33815;48.386;11.738;2023-01-16T17:10:22;2.80;;;2.20;;
48040;SDS011;33815;48.386;11.738;2023-01-16T17:12:47;6.93;;;3.20;;
48040;SDS011;33815;48.386;11.738;2023-01-16T17:15:13;6.30;;;3.33;;
48040;SDS011;33815;48.386;11.738;2023-01-16T17:17:41;8.02;;;5.28;;
48040;SDS011;33815;48.386;11.738;2023-01-16T17:20:18;6.40;;;4.68;;
48040;SDS011;33815;48.386;11.738;2023-01-16T17:22:45;6.43;;;5.53;;
48040;SDS011;33815;48.386;11.738;2023-01-16T17:25:11;6.95;;;3.70;;